Time;durP1;ratioP1;P1;durP2;ratioP2;P2;SDS_P1;SDS_P2;PMS_P1;PMS_P2;Temp;Humidity;BMP_temperature;BMP_pressure;BME280_temperature;BME280_humidity;BME280_pressure;Samples;Min_cycle;Max_cycle;Signal;HPM_P1;HPM_P2
2022/12/25 05:02:48;;;;;;;17.48;9.13;;;9.80;99.90;;;;;;5174919;23;87891;-72
2022/12/25 05:05:14;;;;;;;16.20;7.95;;;9.80;99.90;;;;;;4896280;28;86925;-72
2022/12/25 05:07:39;;;;;;;11.32;5.97;;;9.80;99.90;;;;;;4900569;28;86983;-69
2022/12/25 05:10:05;;;;;;;1.02;0.20;;;9.90;99.90;;;;;;4885432;28;88764;-71
2022/12/25 05:12:31;;;;;;;2.03;0.30;;;9.90;98.20;;;;;;4888564;28;86462;-70
2022/12/25 05:14:57;;;;;;;1.10;0.20;;;10.00;97.30;;;;;;4891212;28;88207;-70
2022/12/25 05:17:22;;;;;;;2.33;0.22;;;10.00;96.90;;;;;;4894105;28;87954;-70
2022/12/25 05:19:48;;;;;;;0.80;0.20;;;10.10;96.30;;;;;;4896588;28;86560;-70
2022/12/25 05:22:14;;;;;;;2.45;0.20;;;10.10;96.10;;;;;;4899280;28;86684;-70
2022/12/25 05:24:39;;;;;;;1.40;0.20;;;10.10;95.90;;;;;;4892866;28;86590;-70
2022/12/25 05:27:05;;;;;;;2.38;0.20;;;10.10;95.70;;;;;;4893869;28;87116;-71
2022/12/25 05:29:31;;;;;;;1.77;0.25;;;10.20;95.40;;;;;;4890657;28;86581;-71
2022/12/25 05:31:56;;;;;;;0.75;0.20;;;10.20;95.30;;;;;;4890411;28;85575;-73
2022/12/25 05:34:22;;;;;;;1.55;0.20;;;10.20;95.30;;;;;;4886595;28;87189;-71
2022/12/25 05:36:48;;;;;;;1.58;0.20;;;10.10;95.50;;;;;;4899401;28;86207;-72
2022/12/25 05:39:13;;;;;;;1.05;0.22;;;10.10;95.50;;;;;;4889176;28;87890;-72
2022/12/25 05:41:39;;;;;;;1.30;0.30;;;10.10;95.50;;;;;;4897524;28;86366;-71
2022/12/25 05:44:05;;;;;;;6.53;2.97;;;10.10;95.80;;;;;;4891420;28;87269;-71
2022/12/25 05:46:31;;;;;;;9.25;4.35;;;10.10;96.00;;;;;;4900740;28;88049;-71
2022/12/25 05:48:56;;;;;;;8.55;4.18;;;10.00;96.40;;;;;;4897713;28;86910;-71
2022/12/25 05:51:22;;;;;;;9.35;5.00;;;9.90;96.70;;;;;;4895519;28;87112;-69
2022/12/25 05:53:48;;;;;;;5.35;2.45;;;9.80;96.80;;;;;;4891687;28;87010;-69
2022/12/25 05:56:13;;;;;;;6.85;3.17;;;9.60;97.10;;;;;;4900761;28;86337;-71
2022/12/25 05:58:39;;;;;;;15.80;8.02;;;9.50;97.20;;;;;;4899568;28;86405;-71
2022/12/25 06:01:18;;;;;;;16.75;9.18;;;9.50;97.40;;;;;;4892023;28;87258;-71
2022/12/25 06:03:45;;;;;;;22.05;11.63;;;9.40;97.80;;;;;;4892779;28;89263;-72
2022/12/25 06:06:11;;;;;;;20.02;10.25;;;9.30;98.50;;;;;;4897311;28;87298;-72
2022/12/25 06:08:37;;;;;;;20.15;10.60;;;9.20;98.70;;;;;;4899948;28;86963;-71
2022/12/25 06:11:04;;;;;;;20.65;10.20;;;9.00;99.00;;;;;;4893471;28;87421;-72
2022/12/25 06:13:31;;;;;;;22.80;10.95;;;9.00;99.50;;;;;;4888197;28;87247;-72
2022/12/25 06:15:57;;;;;;;15.00;8.38;;;8.90;99.70;;;;;;4887372;28;86418;-72
2022/12/25 06:18:23;;;;;;;16.15;8.00;;;8.80;99.90;;;;;;4894607;28;86857;-73
2022/12/25 06:20:49;;;;;;;20.58;10.80;;;8.70;99.90;;;;;;4901727;28;86237;-72
2022/12/25 06:23:15;;;;;;;8.15;3.83;;;8.60;99.90;;;;;;4898755;28;87686;-72
2022/12/25 06:25:40;;;;;;;14.15;7.60;;;8.60;99.90;;;;;;4893590;28;87155;-72
2022/12/25 06:28:06;;;;;;;20.42;9.93;;;8.50;99.90;;;;;;4887137;28;87605;-72
2022/12/25 06:30:32;;;;;;;26.83;12.90;;;8.50;99.90;;;;;;4891070;28;86249;-73
2022/12/25 06:32:58;;;;;;;28.08;11.85;;;8.40;99.90;;;;;;4896281;28;86844;-73
2022/12/25 06:35:25;;;;;;;75.15;12.50;;;8.40;99.90;;;;;;4894456;28;86975;-72
2022/12/25 06:37:50;;;;;;;137.98;15.45;;;8.30;99.90;;;;;;4889767;28;86261;-71
2022/12/25 06:40:16;;;;;;;145.45;14.70;;;8.20;99.90;;;;;;4890688;28;86862;-71
2022/12/25 06:42:42;;;;;;;163.05;13.20;;;8.10;99.90;;;;;;4898002;28;87290;-71
2022/12/25 06:45:08;;;;;;;28.20;9.13;;;8.10;99.90;;;;;;4894865;28;87058;-71
2022/12/25 06:47:34;;;;;;;2.78;0.95;;;8.10;99.90;;;;;;4889186;28;86434;-70
2022/12/25 06:49:59;;;;;;;1.17;0.10;;;8.10;99.90;;;;;;4895770;28;86217;-72
2022/12/25 06:52:25;;;;;;;0.82;0.10;;;8.30;99.90;;;;;;4893499;28;88131;-72
2022/12/25 06:54:51;;;;;;;0.88;0.20;;;8.50;99.90;;;;;;4900724;28;87070;-72
2022/12/25 06:57:17;;;;;;;0.20;0.00;;;8.70;99.90;;;;;;4894792;28;86909;-72
2022/12/25 06:59:43;;;;;;;1.15;0.10;;;8.90;99.00;;;;;;4899563;28;86262;-71
2022/12/25 07:02:18;;;;;;;4.13;1.13;;;9.10;98.10;;;;;;4895976;28;87876;-71
2022/12/25 07:04:45;;;;;;;3.95;1.73;;;9.20;97.80;;;;;;4892111;28;86979;-71
2022/12/25 07:07:11;;;;;;;0.80;0.10;;;9.10;97.90;;;;;;4897575;28;86714;-71
2022/12/25 07:09:37;;;;;;;0.60;0.10;;;9.10;97.30;;;;;;4895969;28;86338;-71
2022/12/25 07:12:13;;;;;;;0.60;0.10;;;9.10;96.90;;;;;;4901133;28;87361;-71
2022/12/25 07:14:39;;;;;;;0.90;0.10;;;9.10;96.70;;;;;;4892037;28;86166;-71
2022/12/25 07:17:05;;;;;;;1.20;0.10;;;9.10;96.60;;;;;;4896479;28;87280;-71
2022/12/25 07:19:31;;;;;;;0.68;0.10;;;9.00;96.50;;;;;;4895323;28;86608;-71
2022/12/25 07:21:57;;;;;;;1.75;0.10;;;9.10;96.40;;;;;;4896028;28;86619;-72
2022/12/25 07:24:23;;;;;;;0.73;0.10;;;9.10;96.00;;;;;;4903531;28;87422;-71
2022/12/25 07:26:49;;;;;;;1.05;0.10;;;9.20;95.80;;;;;;4903512;28;87109;-71
2022/12/25 07:29:16;;;;;;;0.68;0.10;;;9.30;95.60;;;;;;4902896;28;86741;-71
2022/12/25 07:31:42;;;;;;;1.25;0.10;;;9.30;95.30;;;;;;4901554;28;87180;-71
2022/12/25 07:34:07;;;;;;;1.58;0.10;;;9.40;95.00;;;;;;4901003;28;86170;-71
2022/12/25 07:36:33;;;;;;;0.68;0.10;;;9.60;94.70;;;;;;4890596;28;86268;-71
2022/12/25 07:38:59;;;;;;;2.95;0.10;;;9.70;94.10;;;;;;4901617;28;86733;-70
2022/12/25 07:41:24;;;;;;;0.47;0.10;;;9.90;93.60;;;;;;4899527;28;88550;-72
2022/12/25 07:43:52;;;;;;;0.77;0.10;;;10.10;92.90;;;;;;4898484;28;87858;-72
2022/12/25 07:46:18;;;;;;;1.30;0.10;;;10.20;92.30;;;;;;4898418;28;87315;-72
2022/12/25 07:48:44;;;;;;;0.45;0.10;;;10.70;91.30;;;;;;4891325;28;86461;-72
2022/12/25 07:51:12;;;;;;;0.55;0.10;;;11.40;89.20;;;;;;4895864;28;86814;-72
2022/12/25 07:53:38;;;;;;;0.40;0.10;;;11.50;87.20;;;;;;4898904;28;86872;-72
2022/12/25 07:56:08;;;;;;;0.52;0.10;;;11.40;87.70;;;;;;4893301;28;86701;-71
2022/12/25 07:58:34;;;;;;;;;;;11.50;87.30;;;;;;4895793;28;86157;-71
2022/12/25 08:01:05;;;;;;;0.70;0.10;;;11.30;87.60;;;;;;4890633;28;86603;-72
2022/12/25 08:03:32;;;;;;;0.50;0.10;;;11.20;87.70;;;;;;4892421;28;86950;-72
2022/12/25 08:06:00;;;;;;;0.70;0.10;;;11.10;88.30;;;;;;4898168;28;87212;-71
2022/12/25 08:08:25;;;;;;;0.88;0.10;;;11.00;89.10;;;;;;4890378;28;86297;-72
2022/12/25 08:10:51;;;;;;;0.85;0.10;;;10.80;89.30;;;;;;4888186;28;86791;-70
2022/12/25 08:13:17;;;;;;;0.93;0.10;;;10.80;89.90;;;;;;4901516;28;86980;-70
2022/12/25 08:15:42;;;;;;;2.47;0.32;;;10.70;89.80;;;;;;4895354;28;87029;-70
2022/12/25 08:18:08;;;;;;;1.20;0.10;;;10.80;90.00;;;;;;4893092;28;86563;-70
2022/12/25 08:20:34;;;;;;;0.70;0.15;;;10.80;90.20;;;;;;4894238;28;86941;-71
2022/12/25 08:22:59;;;;;;;1.13;0.13;;;10.80;89.90;;;;;;4900500;28;86038;-71
2022/12/25 08:25:25;;;;;;;0.55;0.10;;;11.00;89.90;;;;;;4890289;28;86977;-72
2022/12/25 08:27:51;;;;;;;0.95;0.20;;;11.30;88.40;;;;;;4905776;28;87873;-72
2022/12/25 08:30:16;;;;;;;0.68;0.10;;;11.60;87.30;;;;;;4895186;28;87511;-71
2022/12/25 08:32:42;;;;;;;1.00;0.20;;;12.10;85.90;;;;;;4894390;28;87138;-69
2022/12/25 08:35:08;;;;;;;0.80;0.10;;;12.90;83.50;;;;;;4898035;28;88245;-68
2022/12/25 08:37:33;;;;;;;1.73;0.10;;;13.70;79.20;;;;;;4895603;28;86267;-70
2022/12/25 08:39:59;;;;;;;0.93;0.10;;;14.10;77.20;;;;;;4898608;28;87298;-71
2022/12/25 08:42:25;;;;;;;1.55;0.30;;;14.40;76.00;;;;;;4898804;28;86844;-70
2022/12/25 08:44:50;;;;;;;2.22;0.10;;;14.80;74.10;;;;;;4894476;28;87273;-70
2022/12/25 08:47:16;;;;;;;2.25;0.10;;;14.80;73.80;;;;;;4899423;28;85612;-72
2022/12/25 08:49:42;;;;;;;0.77;0.15;;;14.90;73.30;;;;;;4892471;28;87394;-71
2022/12/25 08:52:08;;;;;;;3.60;1.75;;;14.60;74.30;;;;;;4893915;28;86934;-71
2022/12/25 08:54:35;;;;;;;4.35;2.28;;;14.20;75.40;;;;;;4891871;28;89068;-72
2022/12/25 08:57:01;;;;;;;6.47;3.58;;;13.70;77.60;;;;;;4895294;28;86975;-73
2022/12/25 08:59:27;;;;;;;7.43;4.03;;;13.30;79.30;;;;;;4892923;28;87205;-71
2022/12/25 09:01:53;;;;;;;9.50;4.65;;;12.90;82.10;;;;;;4896366;28;86731;-71
2022/12/25 09:04:18;;;;;;;3.08;1.52;;;12.60;83.00;;;;;;4900644;28;86219;-70
2022/12/25 09:06:44;;;;;;;1.05;0.25;;;12.40;82.30;;;;;;4891995;28;86816;-71
2022/12/25 09:09:10;;;;;;;1.85;0.10;;;12.70;80.50;;;;;;4893498;28;87857;-72
2022/12/25 09:11:35;;;;;;;0.57;0.17;;;12.90;78.90;;;;;;4898301;28;86336;-71
2022/12/25 09:14:01;;;;;;;2.72;0.15;;;13.20;78.70;;;;;;4899372;28;86552;-71
2022/12/25 09:16:26;;;;;;;9.15;4.15;;;12.90;78.50;;;;;;4893684;28;86954;-71
2022/12/25 09:18:56;;;;;;;11.75;5.28;;;12.70;83.80;;;;;;4892943;28;89185;-71
2022/12/25 09:21:21;;;;;;;10.70;5.18;;;12.60;85.30;;;;;;4888109;28;87043;-71
2022/12/25 09:23:47;;;;;;;16.98;4.88;;;12.70;86.70;;;;;;4896110;28;87280;-72
2022/12/25 09:26:15;;;;;;;32.83;5.90;;;13.10;85.40;;;;;;4898270;28;87485;-70
2022/12/25 09:28:41;;;;;;;15.20;5.80;;;13.10;85.10;;;;;;4899533;28;87285;-71
2022/12/25 09:31:07;;;;;;;23.40;6.65;;;13.00;85.70;;;;;;4889665;28;86751;-72
2022/12/25 09:33:33;;;;;;;26.17;7.38;;;12.90;85.70;;;;;;4896517;28;86727;-71
2022/12/25 09:36:02;;;;;;;54.40;6.18;;;12.90;87.10;;;;;;4901402;28;86704;-71
2022/12/25 09:38:28;;;;;;;45.65;6.97;;;13.00;86.50;;;;;;4900109;28;86701;-72
2022/12/25 09:41:07;;;;;;;15.02;5.32;;;12.90;86.70;;;;;;4899055;28;86979;-75
2022/12/25 09:43:40;;;;;;;44.83;6.47;;;12.80;87.10;;;;;;4890861;28;89146;-70
2022/12/25 09:46:12;;;;;;;46.53;5.45;;;12.70;87.60;;;;;;4888987;28;86929;-71
2022/12/25 09:48:40;;;;;;;21.45;6.43;;;12.60;87.90;;;;;;4894464;28;89246;-71
2022/12/25 09:51:12;;;;;;;77.35;6.72;;;12.50;89.90;;;;;;4886214;28;87490;-71
2022/12/25 09:53:51;;;;;;;18.85;5.97;;;12.60;88.80;;;;;;4895509;28;86937;-71
2022/12/25 09:56:24;;;;;;;41.30;6.38;;;12.80;87.60;;;;;;4890608;28;87113;-72
2022/12/25 09:58:51;;;;;;;25.90;6.57;;;13.00;87.50;;;;;;4894834;28;87330;-72
2022/12/25 10:01:43;;;;;;;24.20;5.28;;;13.20;86.90;;;;;;4890070;28;86812;-72
2022/12/25 10:04:40;;;;;;;34.80;5.47;;;13.20;86.10;;;;;;4894081;28;87027;-72
2022/12/25 10:07:43;;;;;;;25.38;6.03;;;13.00;87.40;;;;;;4890047;28;86720;-72
2022/12/25 10:10:30;;;;;;;9.63;5.22;;;12.80;87.50;;;;;;4861668;28;87605;-72
2022/12/25 10:12:56;;;;;;;19.80;6.07;;;12.80;87.20;;;;;;4899752;28;88452;-72
2022/12/25 10:15:21;;;;;;;26.00;6.03;;;12.70;87.00;;;;;;4892401;28;86931;-72
2022/12/25 10:17:49;;;;;;;20.90;5.25;;;12.50;87.70;;;;;;4899192;28;87911;-72
2022/12/25 10:20:33;;;;;;;22.30;6.18;;;12.40;88.90;;;;;;4895206;28;86945;-72
2022/12/25 10:23:02;;;;;;;13.75;6.88;;;12.40;89.10;;;;;;4895305;28;87037;-72
2022/12/25 10:25:29;;;;;;;36.35;17.80;;;12.20;89.80;;;;;;4897776;28;87419;-72
2022/12/25 10:28:00;;;;;;;12.70;5.20;;;12.20;90.30;;;;;;4893727;28;86226;-72
2022/12/25 10:30:27;;;;;;;16.65;8.00;;;12.10;89.70;;;;;;4893027;28;88373;-72
2022/12/25 10:32:55;;;;;;;20.55;12.80;;;12.10;90.30;;;;;;4898272;28;86861;-71
2022/12/25 10:35:24;;;;;;;15.73;6.60;;;12.10;90.30;;;;;;4902118;28;87777;-72
2022/12/25 10:38:16;;;;;;;19.83;8.00;;;11.90;90.50;;;;;;4897775;28;86239;-72
2022/12/25 10:41:04;;;;;;;12.80;4.85;;;11.90;90.40;;;;;;4898057;28;86961;-72
2022/12/25 10:43:37;;;;;;;17.52;10.02;;;11.70;90.60;;;;;;4900431;28;87003;-72
2022/12/25 10:46:10;;;;;;;9.27;5.25;;;11.70;91.10;;;;;;4903316;28;86637;-72
2022/12/25 10:48:41;;;;;;;12.57;5.78;;;11.80;90.90;;;;;;4901484;28;86347;-72
2022/12/25 10:51:07;;;;;;;11.38;5.55;;;11.90;90.50;;;;;;4896854;28;86614;-72
2022/12/25 10:53:40;;;;;;;15.32;5.35;;;11.90;90.60;;;;;;4899851;28;87021;-72
2022/12/25 10:56:06;;;;;;;16.08;6.47;;;11.90;90.40;;;;;;4898130;28;87030;-72
2022/12/25 10:58:33;;;;;;;11.90;6.63;;;11.90;90.80;;;;;;4898211;28;86700;-72
2022/12/25 11:01:04;;;;;;;12.63;5.88;;;12.00;90.40;;;;;;4901961;28;87739;-72
2022/12/25 11:03:38;;;;;;;13.07;5.88;;;11.90;90.40;;;;;;4897999;28;87156;-72
2022/12/25 11:06:05;;;;;;;11.70;6.43;;;12.00;90.50;;;;;;4901729;28;86982;-72
2022/12/25 11:08:33;;;;;;;10.95;6.18;;;12.10;90.60;;;;;;4901998;28;86214;-72
2022/12/25 11:11:07;;;;;;;10.63;6.22;;;12.30;90.20;;;;;;4897469;28;87238;-72
2022/12/25 11:13:38;;;;;;;10.80;6.43;;;12.50;89.60;;;;;;4896143;28;86844;-72
2022/12/25 11:16:24;;;;;;;10.98;6.57;;;12.50;90.20;;;;;;4899897;28;87393;-72
2022/12/25 11:18:52;;;;;;;14.57;5.80;;;12.40;89.60;;;;;;4900228;28;85597;-72
2022/12/25 11:21:23;;;;;;;10.23;5.38;;;12.40;89.20;;;;;;4901840;28;86832;-72
2022/12/25 11:24:05;;;;;;;12.30;6.00;;;12.30;90.00;;;;;;4893430;28;86662;-72
2022/12/25 11:26:45;;;;;;;11.90;5.88;;;12.40;89.70;;;;;;4901000;28;87788;-72
2022/12/25 11:29:34;;;;;;;9.35;5.50;;;12.50;89.00;;;;;;4899799;28;86214;-72
2022/12/25 11:32:02;;;;;;;9.18;5.00;;;12.50;88.70;;;;;;4897945;28;87340;-72
2022/12/25 11:34:40;;;;;;;19.15;7.47;;;12.40;89.30;;;;;;4890091;28;89203;-72
2022/12/25 11:37:13;;;;;;;20.40;6.45;;;12.30;90.40;;;;;;4890630;28;86347;-72
2022/12/25 11:39:40;;;;;;;13.80;6.43;;;12.10;90.60;;;;;;4892110;28;86835;-72
2022/12/25 11:42:20;;;;;;;14.50;6.20;;;12.20;91.00;;;;;;4889744;28;86833;-72
2022/12/25 11:44:58;;;;;;;11.68;5.43;;;12.00;90.90;;;;;;4902396;28;87008;-72
2022/12/25 11:47:44;;;;;;;11.52;5.35;;;12.00;90.90;;;;;;4890878;28;86233;-72
2022/12/25 11:50:12;;;;;;;17.05;6.07;;;12.10;90.70;;;;;;4896030;28;86469;-72
2022/12/25 11:52:42;;;;;;;11.90;5.45;;;12.00;90.80;;;;;;4896438;28;88650;-72
2022/12/25 11:55:25;;;;;;;10.82;5.82;;;12.00;90.40;;;;;;4891960;28;87939;-72
2022/12/25 11:57:56;;;;;;;9.95;5.75;;;12.20;90.60;;;;;;4900617;28;86298;-72
2022/12/25 12:00:22;;;;;;;14.98;6.00;;;12.30;90.50;;;;;;4902045;28;86223;-72
2022/12/25 12:03:00;;;;;;;8.88;4.75;;;12.30;90.10;;;;;;4895310;28;86960;-72
2022/12/25 12:05:41;;;;;;;12.10;5.05;;;12.20;90.30;;;;;;4895782;28;87319;-72
2022/12/25 12:08:09;;;;;;;11.32;5.22;;;12.10;90.20;;;;;;4889001;28;86940;-72
2022/12/25 12:11:24;;;;;;;10.45;5.80;;;12.00;90.80;;;;;;4897158;28;86473;-72
2022/12/25 12:14:11;;;;;;;9.93;5.47;;;11.80;91.00;;;;;;4895249;28;87123;-72
2022/12/25 12:16:37;;;;;;;11.88;6.32;;;11.70;91.30;;;;;;4896944;28;88001;-72
2022/12/25 12:19:26;;;;;;;9.15;4.80;;;11.60;91.70;;;;;;4900145;28;87311;-72
2022/12/25 12:22:03;;;;;;;11.27;4.78;;;11.60;91.60;;;;;;4891633;28;86586;-72
2022/12/25 12:24:42;;;;;;;8.25;5.03;;;11.80;91.50;;;;;;4898380;28;87320;-72
2022/12/25 12:27:32;;;;;;;10.80;4.22;;;11.70;91.50;;;;;;4897358;28;86899;-72
2022/12/25 12:29:58;;;;;;;;;;;11.50;91.20;;;;;;4902471;28;87449;-72
2022/12/25 12:32:32;;;;;;;12.73;4.28;;;11.50;91.60;;;;;;4899719;28;86782;-72
2022/12/25 12:34:59;;;;;;;16.73;4.80;;;11.50;91.40;;;;;;4894408;28;87789;-72
2022/12/25 12:37:35;;;;;;;8.20;4.13;;;11.40;91.60;;;;;;4902221;28;86598;-72
2022/12/25 12:40:03;;;;;;;45.67;4.88;;;11.30;91.70;;;;;;4898741;28;87503;-72
2022/12/25 12:42:34;;;;;;;7.75;3.55;;;11.30;91.80;;;;;;4895857;28;86480;-72
2022/12/25 12:45:16;;;;;;;30.08;4.38;;;11.20;92.20;;;;;;4897127;28;88004;-71
2022/12/25 12:47:45;;;;;;;52.95;4.97;;;11.00;92.20;;;;;;4900366;28;87176;-71
2022/12/25 12:50:43;;;;;;;18.90;4.40;;;10.90;92.60;;;;;;4898968;28;86710;-72
2022/12/25 12:53:21;;;;;;;12.85;4.15;;;10.90;92.90;;;;;;4864059;28;86868;-72
2022/12/25 12:55:47;;;;;;;10.18;3.55;;;10.90;92.90;;;;;;4898036;28;86831;-72
2022/12/25 12:58:27;;;;;;;16.17;4.00;;;10.80;93.10;;;;;;4897254;28;86518;-72
2022/12/25 13:01:07;;;;;;;19.00;5.78;;;10.80;93.20;;;;;;4891205;28;86768;-72
2022/12/25 13:04:09;;;;;;;9.98;3.25;;;10.80;93.30;;;;;;4893488;28;85929;-71
2022/12/25 13:06:49;;;;;;;17.27;3.47;;;10.80;93.70;;;;;;4898873;28;86896;-71
2022/12/25 13:09:53;;;;;;;15.00;4.20;;;10.80;93.30;;;;;;4896732;28;86319;-71
2022/12/25 13:12:19;;;;;;;41.28;4.20;;;10.80;93.50;;;;;;4894717;28;87249;-71
2022/12/25 13:14:47;;;;;;;13.10;3.92;;;10.70;93.40;;;;;;4897091;28;86532;-71
2022/12/25 13:17:18;;;;;;;52.13;3.63;;;10.70;93.90;;;;;;4898253;28;87257;-71
2022/12/25 13:19:45;;;;;;;61.10;4.20;;;10.60;93.70;;;;;;4891794;28;86759;-71
2022/12/25 13:22:28;;;;;;;54.65;4.72;;;10.40;93.90;;;;;;4892047;28;86969;-72
2022/12/25 13:24:56;;;;;;;43.00;5.55;;;10.30;94.80;;;;;;4894286;28;86411;-71
2022/12/25 13:27:25;;;;;;;31.33;4.40;;;10.30;94.90;;;;;;4901013;28;87218;-72
2022/12/25 13:29:50;;;;;;;64.65;5.10;;;10.20;95.10;;;;;;4900178;28;87265;-71
2022/12/25 13:32:36;;;;;;;90.88;5.88;;;10.10;95.30;;;;;;4894316;28;86461;-71
2022/12/25 13:35:02;;;;;;;63.47;4.63;;;10.10;95.60;;;;;;4897077;28;86958;-71
2022/12/25 13:37:30;;;;;;;23.70;4.53;;;10.00;95.70;;;;;;4899557;28;88196;-72
2022/12/25 13:39:58;;;;;;;32.08;4.80;;;10.00;96.30;;;;;;4891370;28;87705;-71
2022/12/25 13:42:30;;;;;;;23.35;4.80;;;10.10;96.20;;;;;;4898735;28;86578;-71
2022/12/25 13:45:14;;;;;;;70.10;4.93;;;10.10;96.20;;;;;;4900579;28;86673;-71
2022/12/25 13:47:44;;;;;;;43.03;4.93;;;10.20;96.10;;;;;;4892915;28;87391;-71
2022/12/25 13:50:13;;;;;;;65.03;5.03;;;10.20;96.20;;;;;;4894418;28;86945;-71
2022/12/25 13:52:39;;;;;;;60.88;5.00;;;10.10;96.20;;;;;;4896889;28;86298;-71
2022/12/25 13:55:15;;;;;;;42.35;4.65;;;10.00;96.70;;;;;;4896528;28;85900;-71
2022/12/25 13:57:51;;;;;;;28.70;3.92;;;10.00;97.00;;;;;;4896571;28;87333;-71
2022/12/25 14:00:24;;;;;;;71.40;4.78;;;9.90;97.10;;;;;;4898862;28;88824;-71
2022/12/25 14:02:50;;;;;;;41.55;4.57;;;9.90;97.40;;;;;;4894807;28;87908;-71
2022/12/25 14:05:23;;;;;;;21.08;5.78;;;9.90;97.50;;;;;;4893538;28;86290;-71
2022/12/25 14:07:54;;;;;;;27.08;5.13;;;9.90;97.70;;;;;;4892099;28;87908;-71
2022/12/25 14:10:21;;;;;;;34.85;5.32;;;9.90;97.60;;;;;;4896805;28;87007;-71
2022/12/25 14:12:50;;;;;;;13.05;3.85;;;10.00;97.70;;;;;;4895069;28;87095;-71
2022/12/25 14:15:20;;;;;;;43.08;5.32;;;10.00;97.60;;;;;;4892887;28;87367;-71
2022/12/25 14:17:47;;;;;;;70.88;5.45;;;10.00;97.70;;;;;;4891858;28;87348;-71
2022/12/25 14:20:53;;;;;;;46.45;5.13;;;9.90;97.60;;;;;;4895468;28;86216;-71
2022/12/25 14:23:19;;;;;;;30.58;5.10;;;9.80;98.00;;;;;;4887031;28;86468;-71
2022/12/25 14:25:46;;;;;;;64.85;4.55;;;9.80;98.40;;;;;;4894147;28;86681;-71
2022/12/25 14:28:30;;;;;;;64.45;4.47;;;9.80;98.30;;;;;;4895360;28;88267;-71
2022/12/25 14:30:57;;;;;;;18.08;3.92;;;9.90;98.00;;;;;;4887907;28;88010;-71
2022/12/25 14:33:24;;;;;;;92.03;4.57;;;9.80;98.30;;;;;;4897377;28;86314;-71
2022/12/25 14:35:51;;;;;;;64.35;4.68;;;9.90;97.90;;;;;;4893233;28;86284;-71
2022/12/25 14:38:33;;;;;;;40.08;4.15;;;9.90;97.90;;;;;;4892526;28;87233;-71
2022/12/25 14:41:16;;;;;;;100.40;4.82;;;9.80;98.10;;;;;;4891038;28;87045;-71
2022/12/25 14:43:52;;;;;;;72.32;5.25;;;9.70;98.10;;;;;;4897762;28;86816;-71
2022/12/25 14:46:25;;;;;;;42.88;4.50;;;9.70;98.40;;;;;;4898581;28;86325;-71
2022/12/25 14:49:22;;;;;;;98.85;6.32;;;9.60;98.80;;;;;;4897253;28;86622;-71
2022/12/25 14:51:48;;;;;;;84.03;4.85;;;9.60;99.10;;;;;;4886512;28;87113;-71
2022/12/25 14:54:21;;;;;;;88.78;4.47;;;9.40;99.30;;;;;;4893968;28;88826;-71
2022/12/25 14:56:49;;;;;;;153.75;6.07;;;9.40;99.80;;;;;;4895196;28;86860;-71
2022/12/25 14:59:20;;;;;;;111.30;5.68;;;9.30;99.90;;;;;;4888713;28;86479;-71
2022/12/25 15:01:53;;;;;;;68.97;4.80;;;9.30;99.90;;;;;;4891361;28;87864;-71
2022/12/25 15:04:21;;;;;;;114.50;5.75;;;9.40;99.90;;;;;;4891049;28;88439;-71
2022/12/25 15:06:59;;;;;;;31.52;4.50;;;9.40;99.90;;;;;;4896549;28;86353;-71
2022/12/25 15:09:26;;;;;;;89.05;4.45;;;9.30;99.90;;;;;;4899419;28;86895;-71
2022/12/25 15:11:54;;;;;;;48.15;4.68;;;9.30;99.90;;;;;;4893728;28;87005;-71
2022/12/25 15:14:24;;;;;;;28.58;5.22;;;9.30;99.90;;;;;;4898430;28;87071;-71
2022/12/25 15:16:56;;;;;;;73.25;5.63;;;9.30;99.90;;;;;;4895991;28;86959;-71
2022/12/25 15:19:35;;;;;;;64.60;4.82;;;9.30;99.90;;;;;;4891657;28;88220;-71
2022/12/25 15:22:01;;;;;;;83.28;4.65;;;9.30;99.90;;;;;;4899539;28;88168;-71
2022/12/25 15:24:27;;;;;;;18.85;4.85;;;9.30;99.90;;;;;;4898933;28;86873;-71
2022/12/25 15:26:54;;;;;;;36.85;5.45;;;9.30;99.90;;;;;;4899496;28;87654;-71
2022/12/25 15:29:20;;;;;;;62.83;5.13;;;9.30;99.90;;;;;;4895251;28;88254;-71
2022/12/25 15:31:46;;;;;;;58.42;5.68;;;9.30;99.90;;;;;;4893637;28;87008;-71
2022/12/25 15:34:18;;;;;;;55.38;6.07;;;9.30;99.90;;;;;;4902294;28;86843;-71
2022/12/25 15:36:43;;;;;;;35.42;5.88;;;9.40;99.90;;;;;;4898813;28;86141;-71
2022/12/25 15:39:09;;;;;;;58.63;6.05;;;9.40;99.90;;;;;;4901030;28;86537;-71
2022/12/25 15:44:32;;;;;;;64.20;5.38;;;9.40;99.90;;;;;;4873451;28;89426;-71
2022/12/25 15:46:57;;;;;;;90.22;5.63;;;9.40;99.90;;;;;;4892353;28;87887;-71
2022/12/25 15:49:23;;;;;;;40.40;5.00;;;9.40;99.90;;;;;;4896854;28;87304;-71
2022/12/25 15:51:48;;;;;;;61.42;5.10;;;9.40;99.90;;;;;;4899425;28;86952;-71
2022/12/25 15:54:14;;;;;;;44.25;5.15;;;9.40;99.90;;;;;;4892567;28;88071;-71
2022/12/25 15:56:44;;;;;;;46.65;5.00;;;9.30;99.90;;;;;;4895553;28;88841;-71
2022/12/25 15:59:11;;;;;;;32.33;5.07;;;9.30;99.90;;;;;;4899419;28;87301;-71
2022/12/25 16:01:38;;;;;;;74.28;5.78;;;9.40;99.90;;;;;;4897033;28;87252;-71
2022/12/25 16:04:03;;;;;;;48.38;5.13;;;9.30;99.90;;;;;;4893898;28;86549;-71
2022/12/25 16:06:29;;;;;;;30.75;6.07;;;9.30;99.90;;;;;;4889750;28;86177;-71
2022/12/25 16:08:55;;;;;;;14.45;5.10;;;9.40;99.90;;;;;;4895271;28;88196;-71
2022/12/25 16:11:21;;;;;;;25.20;5.32;;;9.40;99.90;;;;;;4896377;28;87913;-71
2022/12/25 16:13:47;;;;;;;38.78;5.57;;;9.50;99.90;;;;;;4899108;28;87183;-71
2022/12/25 16:16:12;;;;;;;33.40;5.25;;;9.50;99.90;;;;;;4894107;28;87748;-71
2022/12/25 16:18:38;;;;;;;25.35;5.60;;;9.40;99.90;;;;;;4895797;28;87246;-71
2022/12/25 16:21:04;;;;;;;28.20;5.32;;;9.40;99.90;;;;;;4889977;28;86553;-71
2022/12/25 16:23:30;;;;;;;66.57;5.47;;;9.40;99.90;;;;;;4892819;28;87067;-71
2022/12/25 16:25:55;;;;;;;38.50;6.03;;;9.40;99.90;;;;;;4898889;28;85944;-71
2022/12/25 16:28:21;;;;;;;19.50;5.15;;;9.40;99.90;;;;;;4896681;28;87202;-71
2022/12/25 16:30:47;;;;;;;28.88;5.40;;;9.40;99.90;;;;;;4896629;28;87346;-71
2022/12/25 16:33:13;;;;;;;36.45;5.15;;;9.40;99.90;;;;;;4897557;28;87870;-71
2022/12/25 16:35:38;;;;;;;73.60;5.95;;;9.40;99.90;;;;;;4895675;28;86724;-71
2022/12/25 16:38:04;;;;;;;30.38;4.47;;;9.40;99.90;;;;;;4896174;28;87108;-71
2022/12/25 16:40:30;;;;;;;172.77;7.75;;;9.40;99.90;;;;;;4894416;28;87277;-71
2022/12/25 16:42:56;;;;;;;88.18;5.70;;;9.40;99.90;;;;;;4896151;28;86252;-71
2022/12/25 16:45:21;;;;;;;62.55;5.90;;;9.40;99.90;;;;;;4895501;28;87070;-71
2022/12/25 16:47:47;;;;;;;186.30;7.22;;;9.30;99.90;;;;;;4894590;28;87670;-71
2022/12/25 16:50:13;;;;;;;110.45;8.10;;;9.20;99.90;;;;;;4892089;28;86937;-71
2022/12/25 16:52:39;;;;;;;81.07;9.23;;;9.20;99.90;;;;;;4897948;28;86392;-71
2022/12/25 16:55:05;;;;;;;57.85;6.88;;;9.10;99.90;;;;;;4895869;28;88462;-71
2022/12/25 16:57:32;;;;;;;64.75;5.45;;;9.10;99.90;;;;;;4883187;28;89816;-71
2022/12/25 16:59:57;;;;;;;78.97;6.63;;;9.10;99.90;;;;;;4895892;28;87208;-71
2022/12/25 17:02:23;;;;;;;92.95;7.05;;;8.90;99.90;;;;;;4895405;28;87063;-71
2022/12/25 17:04:49;;;;;;;66.70;6.63;;;8.80;99.90;;;;;;4896660;28;87344;-71
2022/12/25 17:07:16;;;;;;;98.05;7.25;;;8.70;99.90;;;;;;4899375;28;87105;-71
2022/12/25 17:09:42;;;;;;;76.80;7.53;;;8.60;99.90;;;;;;4893487;28;87339;-71
2022/12/25 17:12:08;;;;;;;98.63;9.27;;;8.50;99.90;;;;;;4897570;28;86329;-71
2022/12/25 17:14:35;;;;;;;53.13;6.60;;;8.50;99.90;;;;;;4889929;28;86325;-71
2022/12/25 17:17:01;;;;;;;72.72;9.45;;;8.50;99.90;;;;;;4893924;28;87200;-71
2022/12/25 17:19:26;;;;;;;41.55;6.97;;;8.40;99.90;;;;;;4897526;28;86832;-71
2022/12/25 17:21:53;;;;;;;47.47;6.30;;;8.30;99.90;;;;;;4899775;28;87648;-71
2022/12/25 17:24:20;;;;;;;40.90;6.65;;;8.20;99.90;;;;;;4890444;28;87185;-71
2022/12/25 17:26:46;;;;;;;65.85;9.02;;;8.20;99.90;;;;;;4895539;28;86822;-71
2022/12/25 17:29:13;;;;;;;62.92;9.00;;;8.20;99.90;;;;;;4891610;28;88451;-71
2022/12/25 17:31:39;;;;;;;33.97;7.57;;;8.20;99.90;;;;;;4894802;28;86835;-71
2022/12/25 17:34:07;;;;;;;37.50;9.00;;;8.10;99.90;;;;;;4897254;28;86205;-71
2022/12/25 17:36:33;;;;;;;50.22;7.80;;;8.10;99.90;;;;;;4893742;28;86630;-71
2022/12/25 17:38:59;;;;;;;51.13;8.68;;;8.10;99.90;;;;;;4902292;28;86311;-71
2022/12/25 17:41:25;;;;;;;35.80;7.85;;;8.10;99.90;;;;;;4899874;28;86978;-71
2022/12/25 17:43:51;;;;;;;35.80;7.10;;;8.00;99.90;;;;;;4895994;28;86262;-71
2022/12/25 17:46:22;;;;;;;23.92;7.35;;;8.00;99.90;;;;;;4897456;28;88183;-71
2022/12/25 17:48:49;;;;;;;22.52;6.40;;;8.00;99.90;;;;;;4898075;28;90207;-71
2022/12/25 17:51:16;;;;;;;11.88;6.05;;;8.10;99.90;;;;;;4902304;28;86633;-71
2022/12/25 17:53:44;;;;;;;35.47;9.68;;;8.30;99.90;;;;;;4901920;28;86647;-71
2022/12/25 17:56:10;;;;;;;20.65;8.02;;;8.40;99.90;;;;;;4898718;28;87359;-71
2022/12/25 17:58:37;;;;;;;29.52;7.47;;;8.50;99.90;;;;;;4900684;28;88921;-72
2022/12/25 18:01:11;;;;;;;42.22;7.90;;;8.50;99.90;;;;;;4893741;28;86264;-71